Purdys Mills, New York
Current Conditions -  °F | °C
As of 5:53 PM on Saturday 25 Oct 2014 (Local Time) from KPBG Reporting Station
Light Rain Light Rain  
Wind Chill: 11°   Ceiling: 4100
Heat Index: 11°   Visibility: 7mi
Dew Point: 10°   Wind: 3mph
Humidity: 96%   Direction: 200°SSW
Pressure: 29.52"   Gusts: NA
Location:  44.8543°N, 73.663°W
Report Text: KPBG 252153Z AUTO 20003KT 7SM -RA BKN041 OVC049 11/10 A2952 RMK AO2 SLP997 P0003 T01060100
Loading
Personal Weather Stations






























Interactive Weather Map
Tropical Storm Tracking
New forecast layout! Learn more

10-Day Weather Forecast

Advertisements
Track Severe Weather on mobile